Terminal Aerodrome Forecast
Issued by NWS Tampa Bay Area, FL

Home | Current Version | Previous Version | Text Only | Print | Product List | Glossary Off
Versions: 1 2 3 4 5 6 7 8 9 10 11 12

000
FTUS42 KTBW 181100
TAFSRQ
TAF
KSRQ 181131Z 1812/1912 00000KT P6SM SKC
     FM181500 25005KT P6SM FEW030
     FM181800 27008KT P6SM FEW050
     FM190200 VRB03KT P6SM SKC=

USA.gov is the U.S. government's official web portal to all federal, state and local government web resources and services.